createdAt,value
2018-03-15T00:00:51.237Z,14.87
2018-03-15T00:03:23.861Z,13.30
2018-03-15T00:05:50.197Z,16.03
2018-03-15T00:08:16.488Z,17.63
2018-03-15T00:10:43.568Z,15.63
2018-03-15T00:13:09.878Z,16.60
2018-03-15T00:15:36.914Z,15.20
2018-03-15T00:18:03.254Z,15.70
2018-03-15T00:20:30.344Z,16.67
2018-03-15T00:22:56.646Z,15.23
2018-03-15T00:25:23.672Z,15.93
2018-03-15T00:27:50.894Z,15.00
2018-03-15T00:30:17.260Z,14.90
2018-03-15T00:32:43.585Z,14.77
2018-03-15T00:35:09.905Z,15.47
2018-03-15T00:37:36.229Z,14.63
2018-03-15T00:40:02.669Z,14.47
2018-03-15T00:42:28.963Z,14.87
2018-03-15T00:44:55.265Z,14.17
2018-03-15T00:47:21.587Z,15.27
2018-03-15T00:49:47.923Z,15.47
2018-03-15T00:52:14.220Z,14.13
2018-03-15T00:54:40.551Z,13.63
2018-03-15T00:57:06.842Z,15.10
2018-03-15T00:59:33.172Z,14.43
2018-03-15T01:02:00.018Z,14.03
2018-03-15T01:04:26.378Z,14.73
2018-03-15T01:06:52.657Z,14.87
2018-03-15T01:09:19.704Z,15.70
2018-03-15T01:11:46.018Z,14.60
2018-03-15T01:14:12.404Z,15.47
2018-03-15T01:16:38.727Z,15.27
2018-03-15T01:19:05.040Z,16.20
2018-03-15T01:21:31.374Z,16.60
2018-03-15T01:23:57.751Z,16.53
2018-03-15T01:26:24.053Z,15.10
2018-03-15T01:28:50.370Z,15.07
2018-03-15T01:31:16.645Z,16.57
2018-03-15T01:33:42.975Z,15.00
2018-03-15T01:36:09.334Z,15.00
2018-03-15T01:38:36.387Z,15.00
2018-03-15T01:41:03.415Z,15.90
2018-03-15T01:43:29.758Z,16.00
2018-03-15T01:45:56.792Z,16.07
2018-03-15T01:48:23.084Z,15.97
2018-03-15T01:50:49.453Z,16.20
2018-03-15T01:53:15.738Z,15.60
2018-03-15T01:55:42.019Z,17.27
2018-03-15T01:58:08.375Z,16.00
2018-03-15T02:00:35.445Z,17.60
2018-03-15T02:03:01.836Z,18.27
2018-03-15T02:05:28.874Z,15.53
2018-03-15T02:07:55.205Z,17.67
2018-03-15T02:10:21.502Z,17.30
2018-03-15T02:12:47.837Z,17.60
2018-03-15T02:15:14.157Z,19.37
2018-03-15T02:17:40.501Z,17.07
2018-03-15T02:20:06.821Z,16.90
2018-03-15T02:22:33.119Z,18.17
2018-03-15T02:24:59.443Z,18.13
2018-03-15T02:27:26.517Z,18.00
2018-03-15T02:29:52.795Z,16.97
2018-03-15T02:32:19.099Z,17.40
2018-03-15T02:34:45.433Z,16.13
2018-03-15T02:37:11.758Z,18.43
2018-03-15T02:39:38.068Z,19.63
2018-03-15T02:42:04.415Z,17.43
2018-03-15T02:44:30.760Z,17.87
2018-03-15T02:46:57.050Z,17.63
2018-03-15T02:49:23.384Z,19.00
2018-03-15T02:51:49.725Z,18.03
2018-03-15T02:54:16.059Z,16.10
2018-03-15T02:56:42.372Z,18.90
2018-03-15T02:59:08.720Z,17.30
2018-03-15T03:01:35.078Z,17.43
2018-03-15T03:04:01.353Z,18.07
2018-03-15T03:06:28.408Z,18.67
2018-03-15T03:08:55.473Z,17.10
2018-03-15T03:11:21.835Z,17.93
2018-03-15T03:13:48.200Z,17.60
2018-03-15T03:16:14.529Z,17.80
2018-03-15T03:18:40.901Z,17.97
2018-03-15T03:21:07.192Z,18.40
2018-03-15T03:23:33.487Z,18.60
2018-03-15T03:25:59.821Z,16.37
2018-03-15T03:28:26.126Z,16.53
2018-03-15T03:30:52.451Z,18.07
2018-03-15T03:33:18.799Z,17.77
2018-03-15T03:35:45.138Z,17.70
2018-03-15T03:38:11.484Z,17.83
2018-03-15T03:40:37.840Z,19.67
2018-03-15T03:43:04.195Z,17.90
2018-03-15T03:45:31.286Z,17.47
2018-03-15T03:47:57.580Z,16.50
2018-03-15T03:50:24.628Z,16.13
2018-03-15T03:52:51.683Z,17.30
2018-03-15T03:55:18.022Z,16.80
2018-03-15T03:57:44.323Z,15.80
2018-03-15T04:00:10.642Z,16.33
2018-03-15T04:02:36.975Z,17.57
2018-03-15T04:05:03.305Z,16.17
2018-03-15T04:07:29.634Z,19.00
2018-03-15T04:09:55.993Z,18.60
2018-03-15T04:12:23.088Z,16.90
2018-03-15T04:14:49.413Z,15.67
2018-03-15T04:17:15.783Z,17.93
2018-03-15T04:19:42.183Z,16.30
2018-03-15T04:22:08.464Z,19.07
2018-03-15T04:24:35.528Z,17.83
2018-03-15T04:27:01.856Z,19.43
2018-03-15T04:29:28.154Z,18.23
2018-03-15T04:31:54.489Z,17.30
2018-03-15T04:34:20.774Z,18.10
2018-03-15T04:36:47.144Z,18.63
2018-03-15T04:39:13.506Z,19.00
2018-03-15T04:41:40.630Z,17.80
2018-03-15T04:44:07.088Z,18.23
2018-03-15T04:46:34.212Z,17.20
2018-03-15T04:49:00.607Z,16.87
2018-03-15T04:51:27.003Z,16.80
2018-03-15T04:53:54.124Z,16.90
2018-03-15T04:56:20.484Z,14.63
2018-03-15T04:58:47.574Z,16.67
2018-03-15T05:01:13.906Z,18.20
2018-03-15T05:03:40.270Z,16.20
2018-03-15T05:06:06.557Z,16.10
2018-03-15T05:08:33.749Z,16.70
2018-03-15T05:11:00.052Z,14.90
2018-03-15T05:13:26.344Z,17.90
2018-03-15T05:15:52.674Z,17.30
2018-03-15T05:18:19.078Z,17.67
2018-03-15T05:20:46.148Z,15.33
2018-03-15T05:23:13.224Z,18.50
2018-03-15T05:25:39.592Z,16.40
2018-03-15T05:28:05.882Z,18.53
2018-03-15T05:30:32.252Z,17.13
2018-03-15T05:32:58.644Z,17.63
2018-03-15T05:35:24.940Z,16.93
2018-03-15T05:37:52.021Z,17.67
2018-03-15T05:40:18.348Z,16.50
2018-03-15T05:42:44.710Z,16.20
2018-03-15T05:45:11.002Z,16.63
2018-03-15T05:47:38.089Z,17.57
2018-03-15T05:50:05.705Z,15.00
2018-03-15T05:52:33.587Z,16.47
2018-03-15T05:54:59.918Z,16.17
2018-03-15T05:57:26.298Z,16.47
2018-03-15T05:59:52.654Z,15.70
2018-03-15T06:02:19.716Z,13.70
2018-03-15T06:04:46.824Z,14.70
2018-03-15T06:07:13.127Z,15.63
2018-03-15T06:09:39.472Z,16.30
2018-03-15T06:12:05.772Z,15.90
2018-03-15T06:14:32.109Z,15.20
2018-03-15T06:16:58.447Z,15.10
2018-03-15T06:19:24.770Z,16.63
2018-03-15T06:21:51.144Z,15.63
2018-03-15T06:24:17.417Z,16.20
2018-03-15T06:26:44.436Z,15.80
2018-03-15T06:29:10.740Z,16.47
2018-03-15T06:31:37.808Z,15.43
2018-03-15T06:34:04.155Z,15.20
2018-03-15T06:36:30.479Z,15.03
2018-03-15T06:38:56.775Z,15.87
2018-03-15T06:41:23.056Z,15.87
2018-03-15T06:43:50.137Z,15.93
2018-03-15T06:46:16.434Z,13.90
2018-03-15T06:48:43.639Z,16.07
2018-03-15T06:51:09.947Z,14.67
2018-03-15T06:53:36.288Z,14.20
2018-03-15T06:56:02.618Z,15.20
2018-03-15T06:58:28.974Z,15.17
2018-03-15T07:00:55.308Z,14.60
2018-03-15T07:03:21.585Z,15.23
2018-03-15T07:05:48.629Z,16.43
2018-03-15T07:08:15.680Z,16.27
2018-03-15T07:10:42.730Z,17.47
2018-03-15T07:13:09.794Z,16.87
2018-03-15T07:15:36.087Z,16.30
2018-03-15T07:18:02.390Z,16.80
2018-03-15T07:20:28.940Z,19.03
2018-03-15T07:22:55.243Z,18.10
2018-03-15T07:25:21.523Z,18.93
2018-03-15T07:27:48.636Z,16.13
2018-03-15T07:30:14.994Z,18.93
2018-03-15T07:32:41.425Z,18.70
2018-03-15T07:35:07.744Z,17.10
2018-03-15T07:37:34.088Z,18.77
2018-03-15T07:40:00.388Z,18.00
2018-03-15T07:42:26.680Z,18.30
2018-03-15T07:44:53.116Z,19.50
2018-03-15T07:47:19.416Z,17.60
2018-03-15T07:49:45.930Z,21.97
2018-03-15T07:52:12.214Z,18.60
2018-03-15T07:54:38.517Z,18.90
2018-03-15T07:57:04.850Z,19.20
2018-03-15T07:59:31.933Z,19.73
2018-03-15T08:01:58.351Z,17.47
2018-03-15T08:04:24.710Z,18.57
2018-03-15T08:06:51.033Z,18.47
2018-03-15T08:09:17.339Z,18.27
2018-03-15T08:11:44.377Z,17.37
2018-03-15T08:14:11.472Z,17.90
2018-03-15T08:16:37.828Z,17.37
2018-03-15T08:19:04.187Z,19.20
2018-03-15T08:21:31.273Z,18.63
2018-03-15T08:23:57.608Z,16.67
2018-03-15T08:26:24.121Z,16.10
2018-03-15T08:28:50.472Z,17.30
2018-03-15T08:31:16.794Z,17.60
2018-03-15T08:33:43.200Z,16.40
2018-03-15T08:36:10.283Z,18.40
2018-03-15T08:38:36.609Z,16.33
2018-03-15T08:41:02.976Z,16.43
2018-03-15T08:43:29.258Z,17.33
2018-03-15T08:45:55.582Z,15.70
2018-03-15T08:48:22.885Z,16.43
2018-03-15T08:50:49.212Z,17.33
2018-03-15T08:53:15.613Z,14.90
2018-03-15T08:55:41.991Z,15.37
2018-03-15T08:58:08.419Z,15.70
2018-03-15T09:00:34.842Z,15.77
2018-03-15T09:03:01.133Z,14.43
2018-03-15T09:05:27.453Z,13.77
2018-03-15T09:07:53.784Z,13.80
2018-03-15T09:10:20.137Z,14.70
2018-03-15T09:12:46.500Z,13.70
2018-03-15T09:15:12.887Z,15.03
2018-03-15T09:17:40.022Z,14.97
2018-03-15T09:20:07.096Z,14.50
2018-03-15T09:22:33.428Z,14.63
2018-03-15T09:24:59.713Z,15.47
2018-03-15T09:27:26.118Z,12.13
2018-03-15T09:29:52.404Z,13.80
2018-03-15T09:32:18.743Z,13.03
2018-03-15T09:34:45.035Z,13.07
2018-03-15T09:37:11.429Z,12.20
2018-03-15T09:39:37.777Z,12.07
2018-03-15T09:42:04.129Z,12.57
2018-03-15T09:44:30.437Z,11.27
2018-03-15T09:46:56.764Z,12.40
2018-03-15T09:49:23.107Z,13.10
2018-03-15T09:51:50.163Z,12.30
2018-03-15T09:54:16.550Z,11.70
2018-03-15T09:56:43.697Z,11.20
2018-03-15T09:59:10.038Z,11.63
2018-03-15T10:01:36.419Z,11.70
2018-03-15T10:04:02.725Z,11.43
2018-03-15T10:06:29.138Z,11.90
2018-03-15T10:08:55.515Z,11.53
2018-03-15T10:11:21.919Z,12.57
2018-03-15T10:13:48.279Z,12.13
2018-03-15T10:16:14.646Z,13.53
2018-03-15T10:18:40.984Z,11.83
2018-03-15T10:21:07.374Z,11.20
2018-03-15T10:23:33.804Z,11.80
2018-03-15T10:26:00.109Z,11.90
2018-03-15T10:28:26.440Z,13.07
2018-03-15T10:30:52.746Z,11.00
2018-03-15T10:33:25.321Z,10.77
2018-03-15T10:35:51.654Z,11.43
2018-03-15T10:38:18.016Z,12.97
2018-03-15T10:40:44.339Z,11.03
2018-03-15T10:43:10.712Z,11.70
2018-03-15T10:45:37.819Z,12.00
2018-03-15T10:48:04.248Z,10.67
2018-03-15T10:50:30.620Z,11.57
2018-03-15T10:52:56.940Z,10.30
2018-03-15T10:55:23.353Z,11.57
2018-03-15T10:57:49.756Z,12.40
2018-03-15T11:00:16.148Z,10.57
2018-03-15T11:02:46.392Z,9.93
2018-03-15T11:05:19.752Z,10.87
2018-03-15T11:07:52.228Z,10.50
2018-03-15T11:10:18.674Z,10.13
2018-03-15T11:12:45.052Z,10.63
2018-03-15T11:15:11.418Z,10.67
2018-03-15T11:17:37.750Z,10.40
2018-03-15T11:20:04.120Z,10.17
2018-03-15T11:22:30.518Z,9.97
2018-03-15T11:24:57.548Z,8.73
2018-03-15T11:27:23.936Z,9.80
2018-03-15T11:29:51.018Z,9.53
2018-03-15T11:32:17.356Z,8.23
2018-03-15T11:34:43.733Z,7.43
2018-03-15T11:37:10.098Z,8.30
2018-03-15T11:39:36.461Z,9.87
2018-03-15T11:42:02.890Z,10.00
2018-03-15T11:44:29.272Z,8.73
2018-03-15T11:46:55.798Z,9.10
2018-03-15T11:49:25.496Z,8.67
2018-03-15T11:51:52.568Z,8.37
2018-03-15T11:54:19.692Z,7.47
2018-03-15T11:56:46.052Z,7.67
2018-03-15T11:59:13.142Z,7.50
2018-03-15T12:01:39.556Z,8.00
2018-03-15T12:04:06.595Z,7.23
2018-03-15T12:06:32.920Z,7.40
2018-03-15T12:09:00.029Z,7.57
2018-03-15T12:11:26.357Z,7.87
2018-03-15T12:13:52.691Z,7.17
2018-03-15T12:16:19.159Z,6.87
2018-03-15T12:18:45.477Z,7.70
2018-03-15T12:21:11.854Z,6.73
2018-03-15T12:23:38.943Z,6.43
2018-03-15T12:26:05.268Z,6.50
2018-03-15T12:28:31.781Z,7.90
2018-03-15T12:30:58.163Z,7.10
2018-03-15T12:33:24.478Z,6.80
2018-03-15T12:35:51.248Z,6.90
2018-03-15T12:38:17.571Z,6.63
2018-03-15T12:40:43.948Z,5.40
2018-03-15T12:43:10.306Z,6.17
2018-03-15T12:45:36.636Z,7.00
2018-03-15T12:48:03.043Z,5.97
2018-03-15T12:50:29.443Z,7.50
2018-03-15T12:52:55.729Z,6.53
2018-03-15T12:55:22.137Z,6.80
2018-03-15T12:57:48.475Z,5.73
2018-03-15T13:00:14.798Z,5.00
2018-03-15T13:02:41.135Z,6.10
2018-03-15T13:05:07.523Z,5.83
2018-03-15T13:07:33.891Z,6.20
2018-03-15T13:10:00.237Z,6.10
2018-03-15T13:12:26.593Z,5.13
2018-03-15T13:14:52.957Z,5.83
2018-03-15T13:17:19.332Z,5.53
2018-03-15T13:19:45.687Z,5.43
2018-03-15T13:22:12.027Z,6.17
2018-03-15T13:24:38.370Z,6.67
2018-03-15T13:27:04.711Z,6.47
2018-03-15T13:29:31.076Z,6.93
2018-03-15T13:31:57.424Z,6.30
2018-03-15T13:34:23.775Z,5.40
2018-03-15T13:36:50.174Z,7.10
2018-03-15T13:39:16.532Z,5.47
2018-03-15T13:41:42.847Z,6.33
2018-03-15T13:44:09.165Z,6.93
2018-03-15T13:46:36.210Z,6.10
2018-03-15T13:49:02.525Z,6.20
2018-03-15T13:51:29.560Z,5.90
2018-03-15T13:53:55.850Z,6.50
2018-03-15T13:56:22.970Z,6.27
2018-03-15T13:58:50.093Z,5.80
2018-03-15T14:01:16.403Z,6.37
2018-03-15T14:03:42.780Z,6.40
2018-03-15T14:06:09.117Z,6.63
2018-03-15T14:08:43.134Z,6.10
2018-03-15T14:11:09.462Z,6.70
2018-03-15T14:13:35.791Z,6.03
2018-03-15T14:16:02.956Z,6.07
2018-03-15T14:18:29.299Z,5.20
2018-03-15T14:20:55.645Z,5.67
2018-03-15T14:23:21.928Z,5.77
2018-03-15T14:25:49.083Z,6.20
2018-03-15T14:28:15.433Z,5.50
2018-03-15T14:30:41.823Z,5.50
2018-03-15T14:33:08.915Z,6.20
2018-03-15T14:35:35.231Z,5.57
2018-03-15T14:38:01.573Z,5.00
2018-03-15T14:40:27.893Z,5.60
2018-03-15T14:42:54.224Z,5.80
2018-03-15T14:45:20.560Z,6.17
2018-03-15T14:47:46.891Z,5.27
2018-03-15T14:50:13.318Z,5.40
2018-03-15T14:52:40.427Z,5.50
2018-03-15T14:55:06.736Z,5.50
2018-03-15T14:57:33.062Z,5.10
2018-03-15T14:59:59.433Z,5.30
2018-03-15T15:02:25.768Z,4.40
2018-03-15T15:04:52.128Z,5.53
2018-03-15T15:07:18.485Z,5.67
2018-03-15T15:09:44.896Z,5.13
2018-03-15T15:12:11.208Z,5.87
2018-03-15T15:14:37.555Z,6.77
2018-03-15T15:17:03.923Z,6.33
2018-03-15T15:19:30.247Z,7.20
2018-03-15T15:21:56.709Z,7.40
2018-03-15T15:24:23.081Z,7.90
2018-03-15T15:26:50.120Z,7.63
2018-03-15T15:29:17.165Z,8.30
2018-03-15T15:31:44.205Z,8.40
2018-03-15T15:34:10.512Z,7.50
2018-03-15T15:36:36.856Z,8.43
2018-03-15T15:39:03.215Z,7.90
2018-03-15T15:41:30.304Z,8.50
2018-03-15T15:43:56.684Z,8.33
2018-03-15T15:46:23.835Z,8.33
2018-03-15T15:48:50.913Z,7.30
2018-03-15T15:51:17.263Z,6.83
2018-03-15T15:53:43.559Z,7.87
2018-03-15T15:56:10.637Z,8.37
2018-03-15T15:58:37.129Z,9.33
2018-03-15T16:01:04.320Z,8.97
2018-03-15T16:03:30.656Z,8.80
2018-03-15T16:05:57.022Z,8.33
2018-03-15T16:08:23.379Z,9.60
2018-03-15T16:10:50.459Z,10.60
2018-03-15T16:13:16.816Z,10.10
2018-03-15T16:15:43.462Z,9.60
2018-03-15T16:18:10.119Z,9.10
2018-03-15T16:20:36.566Z,9.73
2018-03-15T16:23:03.652Z,8.90
2018-03-15T16:25:30.017Z,9.93
2018-03-15T16:27:56.406Z,9.27
2018-03-15T16:30:22.704Z,11.33
2018-03-15T16:32:49.038Z,9.10
2018-03-15T16:35:15.368Z,8.60
2018-03-15T16:37:41.988Z,9.47
2018-03-15T16:40:08.571Z,11.00
2018-03-15T16:42:34.986Z,10.20
2018-03-15T16:45:02.095Z,11.27
2018-03-15T16:47:29.457Z,10.30
2018-03-15T16:49:56.119Z,11.13
2018-03-15T16:52:22.790Z,11.70
2018-03-15T16:54:49.279Z,10.87
2018-03-15T16:57:15.631Z,9.60
2018-03-15T16:59:42.023Z,10.03
2018-03-15T17:02:08.360Z,9.70
2018-03-15T17:04:34.687Z,11.40
2018-03-15T17:07:01.046Z,10.57
2018-03-15T17:09:27.364Z,10.97
2018-03-15T17:11:53.892Z,10.43
2018-03-15T17:14:20.229Z,9.97
2018-03-15T17:16:46.581Z,9.47
2018-03-15T17:19:12.905Z,10.70
2018-03-15T17:21:39.254Z,9.30
2018-03-15T17:24:05.743Z,9.10
2018-03-15T17:26:32.275Z,10.30
2018-03-15T17:28:58.577Z,9.17
2018-03-15T17:31:24.941Z,10.37
2018-03-15T17:33:51.340Z,10.90
2018-03-15T17:36:17.715Z,9.50
2018-03-15T17:38:44.096Z,9.63
2018-03-15T17:41:11.171Z,9.20
2018-03-15T17:43:37.504Z,9.70
2018-03-15T17:46:03.857Z,9.43
2018-03-15T17:48:30.229Z,10.07
2018-03-15T17:50:56.648Z,10.27
2018-03-15T17:53:23.021Z,9.40
2018-03-15T17:55:49.361Z,9.93
2018-03-15T17:58:16.633Z,10.13
2018-03-15T18:00:42.882Z,10.40
2018-03-15T18:03:09.205Z,9.47
2018-03-15T18:05:35.528Z,10.07
2018-03-15T18:08:03.022Z,9.67
2018-03-15T18:10:32.125Z,10.17
2018-03-15T18:12:59.462Z,9.50
2018-03-15T18:15:25.822Z,10.83
2018-03-15T18:17:52.957Z,27.73
2018-03-15T18:20:19.281Z,29.70
2018-03-15T18:22:45.724Z,32.73
2018-03-15T18:25:12.871Z,33.80
2018-03-15T18:27:39.276Z,32.40
2018-03-15T18:30:05.686Z,34.33
2018-03-15T18:32:32.182Z,33.93
2018-03-15T18:34:59.264Z,34.00
2018-03-15T18:37:25.642Z,35.63
2018-03-15T18:39:52.978Z,36.50
2018-03-15T18:42:20.672Z,34.37
2018-03-15T18:44:47.058Z,37.20
2018-03-15T18:47:13.449Z,36.00
2018-03-15T18:49:39.805Z,36.77
2018-03-15T18:52:06.197Z,35.97
2018-03-15T18:54:32.671Z,35.70
2018-03-15T18:56:59.111Z,36.97
2018-03-15T18:59:25.470Z,37.33
2018-03-15T19:01:52.127Z,37.63
2018-03-15T19:04:18.691Z,36.87
2018-03-15T19:06:46.000Z,38.63
2018-03-15T19:09:12.566Z,39.77
2018-03-15T19:11:38.878Z,37.93
2018-03-15T19:14:05.310Z,38.70
2018-03-15T19:16:31.730Z,39.60
2018-03-15T19:18:58.182Z,37.37
2018-03-15T19:21:24.602Z,40.77
2018-03-15T19:23:50.970Z,33.90
2018-03-15T19:26:18.147Z,36.70
2018-03-15T19:28:44.469Z,35.67
2018-03-15T19:31:25.962Z,37.23
2018-03-15T19:33:52.299Z,37.10
2018-03-15T19:36:18.626Z,35.97
2018-03-15T19:38:45.048Z,36.97
2018-03-15T19:41:11.352Z,37.07
2018-03-15T19:43:37.860Z,36.67
2018-03-15T19:46:04.919Z,36.27
2018-03-15T19:48:31.252Z,36.77
2018-03-15T19:50:57.616Z,37.47
2018-03-15T19:53:24.878Z,36.77
2018-03-15T19:55:52.056Z,35.93
2018-03-15T19:58:18.454Z,35.27
2018-03-15T20:00:45.560Z,36.63
2018-03-15T20:03:11.988Z,33.67
2018-03-15T20:05:38.341Z,34.73
2018-03-15T20:08:04.746Z,35.13
2018-03-15T20:10:31.199Z,36.43
2018-03-15T20:12:57.663Z,33.93
2018-03-15T20:15:24.003Z,35.07
2018-03-15T20:17:51.223Z,35.90
2018-03-15T20:20:17.585Z,36.27
2018-03-15T20:22:50.922Z,35.30
2018-03-15T20:25:21.205Z,34.03
2018-03-15T20:27:54.454Z,36.57
2018-03-15T20:30:20.826Z,32.60
2018-03-15T20:32:54.149Z,34.73
2018-03-15T20:35:21.555Z,35.67
2018-03-15T20:37:47.918Z,35.63
2018-03-15T20:40:21.313Z,35.67
2018-03-15T20:42:53.349Z,34.30
2018-03-15T20:48:28.264Z,33.63
2018-03-15T20:50:54.612Z,35.20
2018-03-15T20:53:23.313Z,37.17
2018-03-15T20:55:49.657Z,34.10
2018-03-15T20:58:16.073Z,32.80
2018-03-15T21:00:42.671Z,33.23
2018-03-15T21:03:09.025Z,33.23
2018-03-15T21:05:35.517Z,35.70
2018-03-15T21:08:02.730Z,36.87
2018-03-15T21:10:29.133Z,34.10
2018-03-15T21:12:55.492Z,34.00
2018-03-15T21:15:21.884Z,33.60
2018-03-15T21:17:48.262Z,33.43
2018-03-15T21:20:14.562Z,35.00
2018-03-15T21:22:40.930Z,34.07
2018-03-15T21:25:07.252Z,35.80
2018-03-15T21:27:33.606Z,31.83
2018-03-15T21:30:00.936Z,35.63
2018-03-15T21:32:27.388Z,35.17
2018-03-15T21:34:53.954Z,30.90
2018-03-15T21:37:21.031Z,34.77
2018-03-15T21:39:47.405Z,34.27
2018-03-15T21:42:13.784Z,31.10
2018-03-15T21:44:40.294Z,33.17
2018-03-15T21:47:06.565Z,33.47
2018-03-15T21:49:32.915Z,31.50
2018-03-15T21:51:59.209Z,33.47
2018-03-15T21:54:25.566Z,34.90
2018-03-15T21:56:51.871Z,32.20
2018-03-15T21:59:18.295Z,33.90
2018-03-15T22:01:44.640Z,33.47
2018-03-15T22:04:10.975Z,34.30
2018-03-15T22:06:37.395Z,34.30
2018-03-15T22:09:03.793Z,35.47
2018-03-15T22:11:30.241Z,34.97
2018-03-15T22:13:56.722Z,35.30
2018-03-15T22:16:23.071Z,35.97
2018-03-15T22:18:49.382Z,37.07
2018-03-15T22:21:15.788Z,37.30
2018-03-15T22:23:42.813Z,37.90
2018-03-15T22:26:09.274Z,37.20
2018-03-15T22:28:35.605Z,37.30
2018-03-15T22:31:02.697Z,37.30
2018-03-15T22:33:29.091Z,35.40
2018-03-15T22:35:55.410Z,38.03
2018-03-15T22:38:22.434Z,37.67
2018-03-15T22:40:48.868Z,36.60
2018-03-15T22:43:15.189Z,39.27
2018-03-15T22:45:42.256Z,36.27
2018-03-15T22:48:09.287Z,41.30
2018-03-15T22:50:35.668Z,39.10
2018-03-15T22:53:01.952Z,41.23
2018-03-15T22:55:28.248Z,40.47
2018-03-15T22:57:54.586Z,39.27
2018-03-15T23:00:20.992Z,41.23
2018-03-15T23:02:47.360Z,42.37
2018-03-15T23:05:13.672Z,38.47
2018-03-15T23:07:39.984Z,41.97
2018-03-15T23:10:06.606Z,39.80
2018-03-15T23:12:33.635Z,40.57
2018-03-15T23:15:00.159Z,39.73
2018-03-15T23:17:26.587Z,40.23
2018-03-15T23:19:52.929Z,43.40
2018-03-15T23:22:19.447Z,43.03
2018-03-15T23:24:45.862Z,42.50
2018-03-15T23:27:12.195Z,42.23
2018-03-15T23:29:38.456Z,41.80
2018-03-15T23:32:04.905Z,43.27
2018-03-15T23:34:31.265Z,42.37
2018-03-15T23:36:57.831Z,43.17
2018-03-15T23:39:24.481Z,45.67
2018-03-15T23:41:50.936Z,43.13
2018-03-15T23:44:17.247Z,43.57
2018-03-15T23:46:44.352Z,42.60
2018-03-15T23:49:10.785Z,43.97
2018-03-15T23:51:37.120Z,44.00
2018-03-15T23:54:03.465Z,43.60
2018-03-15T23:56:29.785Z,42.93
2018-03-15T23:58:56.199Z,44.87
